Airfield :
LOGIN :

Register | Disclaimer

   EN    FR    IT 

 










Legend :    VFR   Marginal VFR   IFR   Intensive IFR   Very Intensive IFR
Visi :
Ceiling :
>= 8 km
>= 3000ft
5 to 8 km
1000 to 3000 ft
1500m to 5 km
500 to 1000 ft
800 to 1500m
200 to 500 ft
< 800m
< 200 ft
Symbols :   Thunderstorms  Fog  Heavy snow  Heavy precipitations  Wind > 20 kt
SIGMETs :     Misc.  Thunderstorms  Icing  Turbulence  Mountain Waves  Volcanic Ashes






- Airport Elevation : 1508 ft
- IATA code : KRN


ESNQ - Kiruna

CURRENT METAR :
  • 180620Z AUTO 02004KT 9999 OVC003/// 11/11 Q1009

EXPIRED METARs :
  • 180550Z AUTO 03004KT 9999 -RA OVC002/// 11/10 Q1009
  • 180520Z AUTO 03004KT 9999 -RA OVC003/// 10/10 Q1009
  • 180450Z VRB02KT 9000 -RA OVC003 10/09 Q1010
  • 180420Z 03004KT 9999 -RA SCT004 BKN011 10/09 Q1010
  • 180350Z AUTO 03004KT 9999 -RA BKN011/// OVC068/// 10/09 Q1011
  • 180320Z AUTO VRB02KT 9999 RA BKN020/// OVC026/// 10/09 Q1011
  • 180250Z AUTO 00000KT 9999 -RA BKN018/// OVC022/// 10/09 Q1011
  • 180220Z AUTO 06002KT 9999 -RA FEW022/// BKN031/// BKN053/// 10/09 Q1011
  • 180150Z AUTO 05003KT 9999 -RA SCT026/// OVC033/// 11/10 Q1012

TAF TAF ESNQ
Valid from the 18 at 06:00 until the 18 at 15:00 UTC


180530Z 1806/1815 04004KT 9999 -RA SCT003 BKN016
PROB40 1806/1807 0400 FG VV003
TEMPO 1809/1815 SHRA BKN009 BKN020CB
PROB40 1813/1815 4000 TSRA



MET'MAP, your aeronautical weather chart ! - Copyright ORBIFLY December 2007 - Disclaimer

ORBIFLY MET'MAP TEAM :

Programming & Development : Alexandra Zaïnal
Original concept : Baudouin d'Aumeries
Technical & hardware support : Manuel Goepfert
Assistance : Marc-Olivier Méhu




SOURCES & CREDITS :

   NOAA